createdAt,value
2018-04-18T00:01:42.329Z,8.37
2018-04-18T00:04:08.433Z,9.70
2018-04-18T00:06:35.278Z,8.90
2018-04-18T00:09:01.357Z,8.30
2018-04-18T00:11:28.184Z,8.40
2018-04-18T00:13:55.077Z,9.03
2018-04-18T00:16:21.153Z,7.77
2018-04-18T00:18:47.268Z,8.27
2018-04-18T00:21:13.333Z,8.27
2018-04-18T00:23:39.417Z,8.80
2018-04-18T00:26:05.510Z,9.23
2018-04-18T00:28:31.572Z,9.00
2018-04-18T00:30:58.393Z,9.30
2018-04-18T00:33:24.456Z,10.00
2018-04-18T00:35:51.273Z,8.68
2018-04-18T00:38:17.333Z,9.68
2018-04-18T00:40:43.409Z,8.80
2018-04-18T00:43:09.474Z,9.52
2018-04-18T00:45:35.561Z,8.93
2018-04-18T00:48:02.402Z,9.73
2018-04-18T00:50:28.482Z,8.60
2018-04-18T00:52:54.554Z,9.02
2018-04-18T00:55:20.666Z,8.80
2018-04-18T00:57:46.802Z,8.55
2018-04-18T01:00:12.882Z,10.00
2018-04-18T01:02:38.938Z,8.83
2018-04-18T01:05:05.752Z,8.63
2018-04-18T01:07:31.817Z,9.25
2018-04-18T01:09:57.942Z,9.10
2018-04-18T01:12:24.062Z,8.40
2018-04-18T01:14:50.150Z,9.48
2018-04-18T01:17:16.974Z,9.00
2018-04-18T01:19:43.083Z,9.90
2018-04-18T01:22:09.216Z,8.63
2018-04-18T01:24:35.287Z,8.43
2018-04-18T01:27:01.375Z,9.90
2018-04-18T01:29:27.473Z,9.20
2018-04-18T01:31:53.594Z,9.93
2018-04-18T01:34:19.666Z,10.05
2018-04-18T01:36:45.793Z,9.10
2018-04-18T01:39:11.915Z,8.98
2018-04-18T01:41:37.991Z,8.98
2018-04-18T01:44:04.829Z,8.32
2018-04-18T01:46:30.904Z,8.60
2018-04-18T01:49:09.506Z,9.97
2018-04-18T01:51:35.583Z,10.65
2018-04-18T01:54:01.681Z,9.70
2018-04-18T01:56:27.786Z,10.15
2018-04-18T01:58:53.898Z,9.57
2018-04-18T02:01:19.994Z,9.45
2018-04-18T02:03:46.080Z,9.30
2018-04-18T02:06:12.215Z,10.50
2018-04-18T02:08:38.361Z,11.07
2018-04-18T02:11:04.429Z,9.95
2018-04-18T02:13:30.507Z,9.45
2018-04-18T02:15:56.607Z,9.50
2018-04-18T02:18:22.694Z,10.07
2018-04-18T02:20:48.785Z,9.77
2018-04-18T02:23:14.898Z,10.20
2018-04-18T02:25:41.005Z,11.43
2018-04-18T02:28:07.090Z,11.65
2018-04-18T02:30:33.198Z,9.95
2018-04-18T02:32:59.278Z,11.23
2018-04-18T02:35:25.398Z,11.43
2018-04-18T02:37:51.487Z,12.32
2018-04-18T02:40:18.329Z,10.38
2018-04-18T02:42:45.183Z,10.57
2018-04-18T02:45:12.019Z,9.80
2018-04-18T02:47:38.090Z,9.10
2018-04-18T02:50:04.937Z,10.38
2018-04-18T02:52:31.030Z,9.82
2018-04-18T02:54:57.127Z,9.30
2018-04-18T02:57:23.247Z,10.82
2018-04-18T02:59:49.352Z,11.12
2018-04-18T03:02:15.426Z,10.40
2018-04-18T03:04:42.270Z,10.00
2018-04-18T03:07:08.393Z,9.73
2018-04-18T03:09:34.467Z,11.55
2018-04-18T03:12:01.315Z,10.70
2018-04-18T03:14:28.125Z,10.95
2018-04-18T03:16:54.193Z,9.85
2018-04-18T03:19:20.320Z,11.05
2018-04-18T03:21:46.394Z,9.75
2018-04-18T03:24:13.241Z,8.95
2018-04-18T03:26:40.110Z,8.82
2018-04-18T03:29:06.907Z,9.55
2018-04-18T03:31:33.007Z,10.90
2018-04-18T03:33:59.876Z,9.48
2018-04-18T03:36:25.959Z,10.60
2018-04-18T03:38:52.085Z,9.45
2018-04-18T03:41:18.151Z,9.77
2018-04-18T03:43:44.281Z,9.63
2018-04-18T03:46:10.348Z,10.32
2018-04-18T03:48:37.159Z,9.55
2018-04-18T03:51:03.295Z,10.95
2018-04-18T03:53:29.399Z,9.75
2018-04-18T03:55:55.561Z,10.77
2018-04-18T03:58:22.505Z,10.30
2018-04-18T04:00:48.619Z,10.90
2018-04-18T04:03:14.699Z,10.15
2018-04-18T04:05:40.794Z,10.02
2018-04-18T04:08:06.935Z,10.10
2018-04-18T04:10:33.799Z,9.85
2018-04-18T04:12:59.866Z,10.60
2018-04-18T04:15:25.945Z,10.85
2018-04-18T04:18:04.513Z,10.40
2018-04-18T04:20:43.024Z,11.43
2018-04-18T04:23:22.198Z,10.20
2018-04-18T04:25:48.333Z,10.10
2018-04-18T04:28:14.385Z,10.68
2018-04-18T04:30:40.504Z,9.82
2018-04-18T04:33:06.590Z,10.10
2018-04-18T04:35:32.659Z,8.98
2018-04-18T04:37:59.532Z,9.35
2018-04-18T04:40:25.607Z,10.10
2018-04-18T04:42:51.662Z,11.40
2018-04-18T04:45:17.819Z,11.05
2018-04-18T04:47:44.634Z,9.75
2018-04-18T04:50:10.739Z,9.20
2018-04-18T04:52:36.806Z,9.77
2018-04-18T04:55:02.903Z,9.90
2018-04-18T04:57:29.712Z,10.65
2018-04-18T04:59:55.823Z,12.85
2018-04-18T05:02:21.893Z,10.60
2018-04-18T05:04:47.989Z,9.93
2018-04-18T05:07:14.107Z,10.52
2018-04-18T05:09:40.937Z,10.80
2018-04-18T05:12:07.119Z,10.70
2018-04-18T05:14:33.235Z,10.40
2018-04-18T05:17:00.043Z,9.40
2018-04-18T05:19:26.113Z,9.45
2018-04-18T05:21:52.214Z,10.10
2018-04-18T05:24:18.309Z,9.85
2018-04-18T05:26:45.143Z,9.52
2018-04-18T05:29:11.233Z,10.10
2018-04-18T05:31:37.334Z,10.23
2018-04-18T05:34:04.169Z,9.85
2018-04-18T05:36:30.275Z,8.90
2018-04-18T05:38:56.378Z,9.73
2018-04-18T05:41:22.486Z,10.10
2018-04-18T05:43:48.582Z,10.77
2018-04-18T05:46:14.693Z,10.90
2018-04-18T05:48:40.833Z,10.60
2018-04-18T05:51:06.902Z,10.75
2018-04-18T05:53:32.978Z,10.00
2018-04-18T05:55:59.083Z,10.20
2018-04-18T05:58:25.166Z,9.93
2018-04-18T06:00:52.023Z,10.00
2018-04-18T06:03:18.829Z,10.60
2018-04-18T06:05:45.665Z,10.97
2018-04-18T06:08:11.735Z,10.90
2018-04-18T06:10:37.811Z,11.10
2018-04-18T06:13:04.666Z,10.83
2018-04-18T06:15:30.748Z,10.73
2018-04-18T06:17:56.862Z,11.20
2018-04-18T06:20:22.945Z,10.67
2018-04-18T06:22:49.781Z,11.73
2018-04-18T06:25:15.878Z,21.20
2018-04-18T06:27:42.685Z,19.80
2018-04-18T06:30:08.786Z,16.90
2018-04-18T06:32:34.856Z,14.67
2018-04-18T06:35:00.946Z,13.97
2018-04-18T06:37:27.796Z,16.97
2018-04-18T06:39:54.619Z,14.43
2018-04-18T06:42:20.721Z,13.37
2018-04-18T06:44:46.868Z,12.90
2018-04-18T06:47:13.675Z,14.37
2018-04-18T06:49:39.796Z,14.00
2018-04-18T06:52:05.874Z,12.77
2018-04-18T06:54:32.720Z,13.60
2018-04-18T06:56:58.817Z,11.57
2018-04-18T06:59:24.905Z,10.93
2018-04-18T07:01:50.992Z,11.60
2018-04-18T07:04:17.101Z,11.90
2018-04-18T07:06:43.203Z,11.23
2018-04-18T07:09:10.063Z,11.00
2018-04-18T07:11:36.916Z,11.37
2018-04-18T07:14:03.779Z,10.00
2018-04-18T07:16:29.849Z,11.90
2018-04-18T07:18:55.939Z,12.47
2018-04-18T07:21:22.063Z,12.00
2018-04-18T07:23:48.158Z,11.30
2018-04-18T07:26:14.294Z,12.43
2018-04-18T07:28:40.371Z,12.23
2018-04-18T07:31:06.485Z,12.30
2018-04-18T07:33:32.573Z,11.33
2018-04-18T07:35:59.413Z,10.80
2018-04-18T07:38:25.530Z,14.00
2018-04-18T07:40:51.639Z,11.70
2018-04-18T07:43:17.742Z,13.33
2018-04-18T07:45:43.844Z,12.93
2018-04-18T07:48:10.661Z,12.80
2018-04-18T07:50:36.779Z,12.67
2018-04-18T07:53:03.607Z,13.83
2018-04-18T07:55:29.708Z,12.20
2018-04-18T07:57:55.798Z,11.70
2018-04-18T08:00:21.905Z,12.13
2018-04-18T08:02:47.981Z,13.00
2018-04-18T08:05:14.801Z,12.03
2018-04-18T08:07:40.921Z,13.40
2018-04-18T08:10:07.041Z,12.60
2018-04-18T08:12:33.118Z,14.50
2018-04-18T08:15:00.053Z,14.90
2018-04-18T08:17:26.167Z,14.60
2018-04-18T08:19:52.983Z,14.80
2018-04-18T08:22:19.090Z,13.77
2018-04-18T08:24:45.235Z,14.67
2018-04-18T08:27:11.323Z,14.33
2018-04-18T08:29:38.180Z,13.53
2018-04-18T08:32:05.018Z,13.70
2018-04-18T08:34:31.131Z,14.17
2018-04-18T08:36:57.209Z,13.50
2018-04-18T08:39:24.078Z,13.07
2018-04-18T08:41:50.183Z,13.83
2018-04-18T08:44:16.299Z,15.33
2018-04-18T08:46:42.395Z,12.70
2018-04-18T08:49:08.481Z,12.77
2018-04-18T08:51:34.582Z,13.00
2018-04-18T08:54:00.644Z,12.90
2018-04-18T08:56:26.768Z,12.00
2018-04-18T08:58:52.851Z,12.47
2018-04-18T09:01:18.918Z,13.23
2018-04-18T09:03:45.762Z,11.47
2018-04-18T09:06:12.599Z,12.77
2018-04-18T09:08:38.681Z,12.87
2018-04-18T09:11:04.790Z,10.50
2018-04-18T09:13:31.615Z,12.00
2018-04-18T09:15:57.713Z,12.20
2018-04-18T09:18:23.811Z,11.47
2018-04-18T09:20:49.914Z,11.37
2018-04-18T09:23:15.977Z,12.00
2018-04-18T09:25:42.079Z,13.00
2018-04-18T09:28:08.163Z,12.40
2018-04-18T09:30:34.281Z,11.97
2018-04-18T09:33:00.352Z,12.07
2018-04-18T09:35:27.166Z,11.77
2018-04-18T09:37:53.294Z,12.00
2018-04-18T09:40:19.371Z,11.20
2018-04-18T09:42:45.488Z,11.17
2018-04-18T09:45:11.574Z,11.03
2018-04-18T09:47:37.645Z,10.60
2018-04-18T09:50:03.761Z,10.37
2018-04-18T09:52:29.825Z,11.33
2018-04-18T09:54:55.894Z,10.40
2018-04-18T09:57:21.985Z,11.20
2018-04-18T09:59:48.091Z,10.57
2018-04-18T10:02:17.071Z,11.00
2018-04-18T10:04:44.095Z,9.63
2018-04-18T10:07:10.190Z,8.83
2018-04-18T10:09:37.061Z,9.27
2018-04-18T10:12:03.154Z,9.87
2018-04-18T10:14:29.290Z,8.93
2018-04-18T10:16:55.365Z,9.07
2018-04-18T10:19:22.185Z,9.77
2018-04-18T10:21:48.288Z,9.30
2018-04-18T10:24:14.377Z,8.00
2018-04-18T10:26:40.475Z,7.83
2018-04-18T10:29:06.565Z,6.80
2018-04-18T10:31:33.457Z,7.87
2018-04-18T10:33:59.484Z,7.60
2018-04-18T10:36:25.573Z,10.13
2018-04-18T10:38:51.685Z,8.57
2018-04-18T10:41:17.774Z,8.70
2018-04-18T10:43:44.635Z,7.83
2018-04-18T10:46:10.751Z,6.40
2018-04-18T10:48:36.872Z,5.83
2018-04-18T10:51:02.966Z,5.70
2018-04-18T10:53:29.040Z,5.20
2018-04-18T10:55:55.154Z,5.20
2018-04-18T10:58:21.968Z,5.50
2018-04-18T11:00:48.084Z,6.03
2018-04-18T11:03:14.179Z,5.87
2018-04-18T11:05:40.281Z,5.60
2018-04-18T11:08:06.389Z,4.73
2018-04-18T11:10:32.536Z,5.53
2018-04-18T11:12:58.603Z,5.30
2018-04-18T11:15:25.423Z,4.80
2018-04-18T11:17:51.518Z,4.90
2018-04-18T11:20:17.631Z,5.50
2018-04-18T11:22:43.722Z,5.40
2018-04-18T11:25:09.823Z,4.70
2018-04-18T11:27:35.919Z,5.00
2018-04-18T11:30:02.100Z,4.77
2018-04-18T11:32:28.907Z,3.60
2018-04-18T11:34:54.969Z,4.80
2018-04-18T11:37:21.079Z,5.90
2018-04-18T11:39:47.210Z,5.00
2018-04-18T11:42:13.261Z,4.10
2018-04-18T11:44:39.344Z,4.30
2018-04-18T11:47:05.520Z,4.43
2018-04-18T11:49:31.598Z,4.60
2018-04-18T11:51:57.721Z,4.63
2018-04-18T11:54:23.807Z,4.60
2018-04-18T11:56:49.931Z,3.97
2018-04-18T11:59:16.765Z,4.80
2018-04-18T12:01:42.871Z,4.30
2018-04-18T12:04:09.007Z,4.73
2018-04-18T12:06:35.042Z,4.57
2018-04-18T12:09:01.153Z,3.50
2018-04-18T12:11:27.254Z,3.23
2018-04-18T12:13:53.335Z,3.77
2018-04-18T12:16:19.445Z,3.73
2018-04-18T12:18:46.291Z,4.13
2018-04-18T12:21:12.423Z,4.20
2018-04-18T12:23:38.596Z,4.13
2018-04-18T12:26:05.447Z,4.20
2018-04-18T12:28:31.618Z,4.80
2018-04-18T12:30:57.717Z,3.50
2018-04-18T12:33:24.520Z,3.70
2018-04-18T12:35:50.622Z,4.77
2018-04-18T12:38:17.470Z,5.40
2018-04-18T12:40:44.301Z,5.90
2018-04-18T12:43:10.384Z,5.73
2018-04-18T12:45:36.469Z,5.30
2018-04-18T12:48:02.649Z,6.20
2018-04-18T12:50:28.781Z,6.70
2018-04-18T12:52:55.585Z,6.17
2018-04-18T12:55:21.701Z,5.80
2018-04-18T12:57:47.814Z,6.13
2018-04-18T13:00:14.664Z,6.70
2018-04-18T13:02:41.491Z,7.00
2018-04-18T13:05:07.573Z,6.40
2018-04-18T13:07:33.653Z,6.83
2018-04-18T13:09:59.734Z,7.63
2018-04-18T13:12:26.605Z,6.43
2018-04-18T13:14:52.683Z,5.83
2018-04-18T13:17:18.774Z,6.10
2018-04-18T13:19:45.622Z,6.10
2018-04-18T13:22:12.502Z,6.40
2018-04-18T13:24:38.602Z,6.70
2018-04-18T13:27:05.440Z,6.60
2018-04-18T13:29:31.551Z,6.90
2018-04-18T13:31:57.618Z,6.80
2018-04-18T13:34:23.682Z,6.87
2018-04-18T13:36:50.601Z,7.07
2018-04-18T13:39:16.676Z,6.90
2018-04-18T13:41:43.518Z,6.63
2018-04-18T13:44:09.605Z,7.10
2018-04-18T13:46:35.763Z,6.80
2018-04-18T13:49:01.894Z,5.70
2018-04-18T13:51:27.978Z,7.27
2018-04-18T13:53:54.059Z,6.33
2018-04-18T13:56:20.206Z,6.73
2018-04-18T13:58:46.290Z,6.90
2018-04-18T14:01:12.377Z,5.50
2018-04-18T14:03:38.461Z,4.63
2018-04-18T14:06:04.575Z,4.20
2018-04-18T14:08:30.702Z,4.47
2018-04-18T14:10:56.756Z,4.63
2018-04-18T14:13:22.827Z,4.63
2018-04-18T14:15:49.687Z,3.50
2018-04-18T14:18:16.498Z,3.60
2018-04-18T14:20:42.561Z,4.37
2018-04-18T14:23:08.657Z,4.67
2018-04-18T14:25:34.755Z,4.20
2018-04-18T14:28:00.841Z,4.57
2018-04-18T14:30:26.940Z,4.60
2018-04-18T14:32:52.997Z,4.73
2018-04-18T14:35:19.111Z,4.97
2018-04-18T14:37:45.911Z,5.20
2018-04-18T14:40:11.986Z,5.70
2018-04-18T14:42:38.812Z,4.67
2018-04-18T14:45:04.920Z,5.80
2018-04-18T14:47:30.984Z,5.17
2018-04-18T14:49:57.079Z,6.00
2018-04-18T14:52:23.134Z,4.87
2018-04-18T14:54:49.964Z,3.70
2018-04-18T14:57:16.022Z,3.53
2018-04-18T14:59:42.109Z,4.23
2018-04-18T15:02:08.162Z,3.43
2018-04-18T15:04:34.952Z,4.13
2018-04-18T15:07:01.161Z,3.70
2018-04-18T15:09:27.969Z,4.43
2018-04-18T15:11:54.051Z,3.90
2018-04-18T15:14:20.893Z,3.57
2018-04-18T15:16:46.995Z,3.70
2018-04-18T15:19:13.060Z,4.00
2018-04-18T15:21:39.139Z,3.37
2018-04-18T15:24:05.306Z,3.67
2018-04-18T15:26:31.407Z,3.07
2018-04-18T15:28:57.507Z,4.07
2018-04-18T15:31:23.702Z,4.03
2018-04-18T15:33:49.847Z,3.60
2018-04-18T15:36:15.975Z,3.60
2018-04-18T15:38:42.059Z,3.73
2018-04-18T15:41:08.141Z,3.57
2018-04-18T15:43:34.255Z,3.77
2018-04-18T15:46:00.371Z,3.13
2018-04-18T15:48:26.444Z,2.67
2018-04-18T15:50:53.297Z,3.00
2018-04-18T15:53:20.179Z,2.80
2018-04-18T15:55:46.297Z,3.70
2018-04-18T15:58:13.159Z,3.60
2018-04-18T16:00:39.282Z,3.07
2018-04-18T16:03:06.120Z,4.20
2018-04-18T16:05:33.051Z,4.50
2018-04-18T16:07:59.179Z,3.13
2018-04-18T16:10:25.318Z,3.73
2018-04-18T16:12:51.499Z,3.70
2018-04-18T16:15:17.570Z,2.83
2018-04-18T16:17:43.638Z,3.30
2018-04-18T16:20:09.727Z,2.93
2018-04-18T16:22:36.521Z,3.30
2018-04-18T16:25:02.636Z,3.90
2018-04-18T16:27:28.707Z,3.47
2018-04-18T16:29:54.797Z,4.00
2018-04-18T16:32:21.657Z,3.77
2018-04-18T16:34:48.524Z,3.30
2018-04-18T16:37:14.630Z,3.63
2018-04-18T16:39:40.751Z,4.40
2018-04-18T16:42:06.877Z,8.10
2018-04-18T16:44:33.008Z,12.30
2018-04-18T16:46:59.813Z,10.30
2018-04-18T16:49:26.752Z,5.10
2018-04-18T16:51:55.454Z,4.67
2018-04-18T16:54:21.547Z,4.60
2018-04-18T16:56:47.639Z,6.47
2018-04-18T16:59:13.705Z,5.70
2018-04-18T17:01:39.813Z,37.80
2018-04-18T17:04:05.963Z,7.57
2018-04-18T17:06:32.773Z,6.67
2018-04-18T17:08:58.890Z,8.17
2018-04-18T17:11:25.026Z,13.63
2018-04-18T17:13:51.109Z,7.80
2018-04-18T17:16:17.205Z,5.10
2018-04-18T17:18:43.274Z,3.57
2018-04-18T17:21:09.369Z,2.60
2018-04-18T17:23:35.453Z,3.10
2018-04-18T17:26:01.566Z,2.90
2018-04-18T17:28:27.649Z,3.30
2018-04-18T17:30:53.806Z,3.77
2018-04-18T17:33:20.609Z,3.53
2018-04-18T17:35:46.729Z,3.57
2018-04-18T17:38:12.849Z,3.63
2018-04-18T17:40:38.970Z,4.33
2018-04-18T17:43:05.779Z,3.43
2018-04-18T17:45:31.854Z,5.43
2018-04-18T17:47:57.941Z,4.60
2018-04-18T17:50:24.055Z,4.50
2018-04-18T17:52:50.151Z,4.00
2018-04-18T17:55:16.284Z,4.30
2018-04-18T17:57:42.359Z,3.70
2018-04-18T18:00:09.229Z,4.30
2018-04-18T18:02:35.355Z,4.13
2018-04-18T18:05:02.190Z,4.00
2018-04-18T18:07:29.000Z,4.10
2018-04-18T18:09:55.114Z,6.43
2018-04-18T18:12:21.268Z,4.90
2018-04-18T18:14:48.072Z,4.90
2018-04-18T18:17:16.081Z,3.90
2018-04-18T18:19:43.096Z,5.00
2018-04-18T18:22:09.178Z,5.10
2018-04-18T18:24:36.041Z,4.97
2018-04-18T18:27:02.194Z,5.03
2018-04-18T18:29:28.340Z,5.00
2018-04-18T18:31:54.594Z,5.93
2018-04-18T18:34:22.083Z,5.67
2018-04-18T18:36:48.334Z,6.00
2018-04-18T18:39:14.407Z,7.13
2018-04-18T18:41:40.579Z,6.70
2018-04-18T18:44:06.758Z,5.50
2018-04-18T18:46:35.102Z,5.00
2018-04-18T18:49:01.219Z,5.10
2018-04-18T18:51:27.307Z,5.10
2018-04-18T18:53:53.544Z,5.30
2018-04-18T18:56:19.665Z,5.77
2018-04-18T18:58:45.744Z,5.20
2018-04-18T19:01:11.895Z,5.43
2018-04-18T19:03:38.773Z,5.23
2018-04-18T19:06:04.935Z,5.20
2018-04-18T19:08:31.039Z,6.20
2018-04-18T19:10:57.907Z,6.00
2018-04-18T19:13:24.015Z,5.90
2018-04-18T19:15:50.893Z,7.47
2018-04-18T19:18:16.962Z,9.10
2018-04-18T19:20:43.098Z,7.63
2018-04-18T19:23:09.235Z,7.73
2018-04-18T19:25:35.375Z,8.50
2018-04-18T19:28:01.430Z,8.13
2018-04-18T19:30:27.570Z,7.70
2018-04-18T19:32:53.746Z,8.67
2018-04-18T19:35:20.565Z,8.70
2018-04-18T19:37:46.687Z,8.70
2018-04-18T19:40:12.771Z,8.70
2018-04-18T19:42:38.890Z,9.60
2018-04-18T19:45:05.065Z,10.27
2018-04-18T19:47:31.940Z,10.40
2018-04-18T19:49:58.031Z,10.20
2018-04-18T19:52:24.138Z,9.20
2018-04-18T19:54:50.249Z,8.03
2018-04-18T19:57:16.310Z,9.10
2018-04-18T19:59:42.387Z,8.70
2018-04-18T20:02:08.533Z,8.60
2018-04-18T20:04:34.734Z,8.43
2018-04-18T20:07:01.559Z,8.77
2018-04-18T20:09:27.629Z,8.37
2018-04-18T20:11:53.732Z,8.63
2018-04-18T20:14:19.805Z,8.37
2018-04-18T20:16:45.967Z,7.50
2018-04-18T20:19:12.082Z,7.80
2018-04-18T20:21:38.268Z,7.80
2018-04-18T20:24:05.132Z,7.13
2018-04-18T20:26:31.242Z,8.97
2018-04-18T20:28:57.371Z,9.80
2018-04-18T20:31:23.596Z,8.53
2018-04-18T20:33:49.714Z,9.20
2018-04-18T20:36:15.841Z,8.10
2018-04-18T20:38:41.982Z,7.30
2018-04-18T20:41:08.149Z,7.80
2018-04-18T20:43:34.234Z,8.70
2018-04-18T20:46:01.131Z,9.07
2018-04-18T20:48:28.018Z,9.80
2018-04-18T20:50:54.239Z,9.90
2018-04-18T20:53:20.354Z,11.37
2018-04-18T20:55:46.508Z,11.30
2018-04-18T20:58:12.626Z,10.17
2018-04-18T21:00:38.761Z,9.20
2018-04-18T21:03:04.865Z,8.63
2018-04-18T21:05:30.963Z,8.23
2018-04-18T21:07:57.072Z,8.30
2018-04-18T21:10:23.206Z,8.60
2018-04-18T21:12:49.291Z,9.43
2018-04-18T21:15:16.429Z,8.40
2018-04-18T21:17:42.549Z,7.97
2018-04-18T21:20:08.823Z,7.37
2018-04-18T21:22:34.918Z,7.57
2018-04-18T21:25:01.736Z,7.20
2018-04-18T21:27:27.834Z,9.03
2018-04-18T21:29:53.902Z,9.53
2018-04-18T21:32:19.997Z,8.63
2018-04-18T21:34:46.133Z,7.77
2018-04-18T21:37:13.007Z,7.73
2018-04-18T21:39:39.090Z,9.17
2018-04-18T21:42:05.347Z,7.80
2018-04-18T21:44:31.435Z,9.90
2018-04-18T21:46:57.549Z,10.40
2018-04-18T21:49:23.636Z,9.73
2018-04-18T21:51:49.845Z,9.80
2018-04-18T21:54:15.977Z,10.20
2018-04-18T21:56:42.125Z,9.60
2018-04-18T21:59:08.246Z,9.53
2018-04-18T22:01:34.334Z,8.40
2018-04-18T22:04:00.466Z,12.30
2018-04-18T22:06:26.582Z,11.70
2018-04-18T22:08:52.765Z,9.67
2018-04-18T22:11:18.957Z,8.93
2018-04-18T22:13:45.083Z,9.70
2018-04-18T22:16:11.206Z,9.63
2018-04-18T22:18:38.079Z,9.80
2018-04-18T22:21:04.226Z,10.70
2018-04-18T22:23:30.311Z,11.67
2018-04-18T22:25:56.463Z,10.17
2018-04-18T22:28:23.309Z,9.73
2018-04-18T22:30:49.487Z,9.73
2018-04-18T22:33:15.572Z,9.27
2018-04-18T22:35:41.694Z,9.23
2018-04-18T22:38:07.765Z,9.27
2018-04-18T22:40:33.855Z,10.53
2018-04-18T22:42:59.980Z,9.10
2018-04-18T22:45:26.070Z,9.57
2018-04-18T22:47:52.151Z,9.43
2018-04-18T22:50:18.315Z,8.17
2018-04-18T22:52:44.421Z,9.60
2018-04-18T22:55:10.536Z,9.67
2018-04-18T22:57:36.660Z,8.40
2018-04-18T23:00:02.862Z,9.97
2018-04-18T23:02:28.960Z,8.37
2018-04-18T23:04:55.768Z,10.40
2018-04-18T23:07:21.853Z,8.37
2018-04-18T23:09:48.654Z,8.63
2018-04-18T23:12:14.773Z,8.87
2018-04-18T23:14:40.874Z,9.33
2018-04-18T23:17:06.977Z,10.20
2018-04-18T23:19:33.056Z,10.10
2018-04-18T23:21:59.892Z,10.20
2018-04-18T23:24:25.975Z,10.00
2018-04-18T23:26:52.096Z,9.57
2018-04-18T23:29:18.958Z,10.73
2018-04-18T23:31:45.824Z,10.37
2018-04-18T23:34:11.937Z,10.47
2018-04-18T23:36:37.984Z,10.87
2018-04-18T23:39:04.827Z,10.87
2018-04-18T23:41:31.641Z,11.30
2018-04-18T23:43:57.732Z,11.33
2018-04-18T23:46:24.548Z,10.33
2018-04-18T23:48:50.659Z,10.10
2018-04-18T23:51:16.741Z,10.93
2018-04-18T23:53:42.872Z,10.17
2018-04-18T23:56:08.933Z,10.60
2018-04-18T23:58:35.764Z,11.03
